createdAt,value
2018-12-16T00:01:43.310Z,-2.33
2018-12-16T00:04:16.339Z,-2.35
2018-12-16T00:06:48.753Z,-2.36
2018-12-16T00:09:18.880Z,-2.42
2018-12-16T00:11:49.201Z,-2.44
2018-12-16T00:14:19.267Z,-2.42
2018-12-16T00:16:49.666Z,-2.39
2018-12-16T00:19:20.277Z,-2.36
2018-12-16T00:21:51.534Z,-2.44
2018-12-16T00:24:22.177Z,-2.43
2018-12-16T00:27:15.644Z,-2.47
2018-12-16T00:29:45.766Z,-2.46
2018-12-16T00:32:15.781Z,-2.39
2018-12-16T00:34:45.880Z,-2.41
2018-12-16T00:37:16.086Z,-2.39
2018-12-16T00:39:46.224Z,-2.39
2018-12-16T00:42:16.410Z,-2.34
2018-12-16T00:44:46.646Z,-2.38
2018-12-16T00:47:16.795Z,-2.32
2018-12-16T00:49:47.799Z,-2.32
2018-12-16T00:54:54.970Z,-2.26
2018-12-16T00:57:24.986Z,-2.34
2018-12-16T00:59:55.256Z,-2.33
2018-12-16T01:02:31.320Z,-2.33
2018-12-16T01:05:01.775Z,-2.30
2018-12-16T01:07:31.815Z,-2.25
2018-12-16T01:10:02.143Z,-2.28
2018-12-16T01:12:34.149Z,-2.32
2018-12-16T01:15:05.080Z,-2.32
2018-12-16T01:17:35.270Z,-2.30
2018-12-16T01:20:06.907Z,-2.27
2018-12-16T01:22:43.230Z,-2.32
2018-12-16T01:25:09.285Z,-2.34
2018-12-16T01:27:40.563Z,-2.30
2018-12-16T01:30:11.117Z,-2.30
2018-12-16T01:32:41.423Z,-2.27
2018-12-16T01:35:11.835Z,-2.30
2018-12-16T01:37:42.010Z,-2.30
2018-12-16T01:40:12.201Z,-2.21
2018-12-16T01:42:43.349Z,-2.20
2018-12-16T01:45:13.608Z,-2.18
2018-12-16T01:47:43.581Z,-2.22
2018-12-16T01:50:14.911Z,-2.16
2018-12-16T01:52:50.121Z,-2.20
2018-12-16T01:55:18.750Z,-2.17
2018-12-16T01:57:49.110Z,-2.20
2018-12-16T02:00:19.692Z,-2.21
2018-12-16T02:02:50.481Z,-2.19
2018-12-16T02:05:21.737Z,-2.16
2018-12-16T02:07:51.708Z,-2.23
2018-12-16T02:10:22.472Z,-2.16
2018-12-16T02:12:52.957Z,-2.14
2018-12-16T02:15:23.170Z,-2.17
2018-12-16T02:17:53.484Z,-2.16
2018-12-16T02:20:23.792Z,-2.15
2018-12-16T02:22:56.974Z,-2.14
2018-12-16T02:25:26.139Z,-2.19
2018-12-16T02:27:57.499Z,-2.12
2018-12-16T02:30:33.393Z,-2.07
2018-12-16T02:33:03.700Z,-2.07
2018-12-16T02:35:34.636Z,-2.06
2018-12-16T02:38:05.825Z,-2.02
2018-12-16T02:40:36.104Z,-2.08
2018-12-16T02:43:06.394Z,-2.05
2018-12-16T02:45:36.556Z,-2.05
2018-12-16T02:48:06.715Z,-2.02
2018-12-16T02:50:37.151Z,-1.98
2018-12-16T02:53:07.630Z,-2.00
2018-12-16T02:55:37.953Z,-2.02
2018-12-16T02:58:08.344Z,-2.02
2018-12-16T03:00:38.680Z,-2.03
2018-12-16T03:03:08.770Z,-2.03
2018-12-16T03:05:39.110Z,-2.03
2018-12-16T03:08:09.206Z,-2.06
2018-12-16T03:10:39.549Z,-2.11
2018-12-16T03:13:09.757Z,-2.07
2018-12-16T03:15:40.915Z,-2.08
2018-12-16T03:18:11.383Z,-2.07
2018-12-16T03:20:43.042Z,-2.07
2018-12-16T03:23:14.470Z,-2.02
2018-12-16T03:25:44.676Z,-1.99
2018-12-16T03:28:15.020Z,-2.00
2018-12-16T03:30:45.332Z,-2.01
2018-12-16T03:33:15.360Z,-2.05
2018-12-16T03:35:45.873Z,-2.03
2018-12-16T03:38:16.588Z,-2.04
2018-12-16T03:40:46.938Z,-2.01
2018-12-16T03:43:16.988Z,-2.04
2018-12-16T03:45:47.042Z,-2.04
2018-12-16T03:48:17.227Z,-1.99
2018-12-16T03:50:47.549Z,-1.96
2018-12-16T03:53:20.119Z,-1.95
2018-12-16T03:55:50.240Z,-1.94
2018-12-16T03:58:20.397Z,-1.92
2018-12-16T04:00:50.685Z,-1.89
2018-12-16T04:03:21.412Z,-1.87
2018-12-16T04:05:52.422Z,-1.85
2018-12-16T04:08:22.715Z,-1.78
2018-12-16T04:10:52.947Z,-1.84
2018-12-16T04:13:23.177Z,-1.84
2018-12-16T04:15:55.407Z,-1.79
2018-12-16T04:18:25.635Z,-1.74
2018-12-16T04:20:55.791Z,-1.68
2018-12-16T04:23:27.511Z,-1.70
2018-12-16T04:25:58.866Z,-1.72
2018-12-16T04:28:29.686Z,-1.76
2018-12-16T04:31:00.221Z,-1.78
2018-12-16T04:33:30.389Z,-1.78
2018-12-16T04:36:01.505Z,-1.84
2018-12-16T04:38:31.615Z,-1.79
2018-12-16T04:41:03.190Z,-1.78
2018-12-16T04:43:33.323Z,-1.75
2018-12-16T04:46:04.372Z,-1.78
2018-12-16T04:51:13.781Z,-1.79
2018-12-16T04:53:43.848Z,-1.81
2018-12-16T04:56:14.727Z,-1.83
2018-12-16T04:58:45.362Z,-1.79
2018-12-16T05:01:15.842Z,-1.77
2018-12-16T05:03:47.579Z,-1.78
2018-12-16T05:06:19.536Z,-1.77
2018-12-16T05:08:50.179Z,-1.81
2018-12-16T05:11:20.749Z,-1.79
2018-12-16T05:13:51.519Z,-1.75
2018-12-16T05:16:22.339Z,-1.72
2018-12-16T05:18:52.516Z,-1.72
2018-12-16T05:21:22.932Z,-1.69
2018-12-16T05:23:53.128Z,-1.68
2018-12-16T05:26:23.398Z,-1.70
2018-12-16T05:28:53.451Z,-1.72
2018-12-16T05:31:24.153Z,-1.70
2018-12-16T05:33:54.428Z,-1.67
2018-12-16T05:36:25.142Z,-1.68
2018-12-16T05:38:56.773Z,-1.71
2018-12-16T05:41:27.745Z,-1.72
2018-12-16T05:43:58.496Z,-1.70
2018-12-16T05:46:28.790Z,-1.69
2018-12-16T05:48:58.944Z,-1.75
2018-12-16T05:51:29.135Z,-1.72
2018-12-16T05:53:59.326Z,-1.68
2018-12-16T05:56:29.641Z,-1.70
2018-12-16T05:59:00.116Z,-1.72
2018-12-16T06:01:34.770Z,-1.69
2018-12-16T06:04:06.110Z,-1.67
2018-12-16T06:06:36.610Z,-1.69
2018-12-16T06:09:07.297Z,-1.66
2018-12-16T06:11:37.585Z,-1.66
2018-12-16T06:14:07.647Z,-1.68
2018-12-16T06:16:38.023Z,-1.70
2018-12-16T06:19:09.057Z,-1.69
2018-12-16T06:21:39.278Z,-1.71
2018-12-16T06:24:09.908Z,-1.75
2018-12-16T06:26:41.101Z,-1.71
2018-12-16T06:29:11.959Z,-1.74
2018-12-16T06:31:43.085Z,-1.85
2018-12-16T06:34:13.516Z,-1.79
2018-12-16T06:36:43.680Z,-1.77
2018-12-16T06:39:14.546Z,-1.73
2018-12-16T06:41:44.674Z,-1.75
2018-12-16T06:44:14.785Z,-1.72
2018-12-16T06:46:44.945Z,-1.71
2018-12-16T06:49:15.210Z,-1.68
2018-12-16T06:51:46.621Z,-1.74
2018-12-16T06:54:18.693Z,-1.75
2018-12-16T06:56:48.869Z,-1.78
2018-12-16T06:59:25.161Z,-1.74
2018-12-16T07:01:56.127Z,-1.72
2018-12-16T07:04:26.420Z,-1.76
2018-12-16T07:06:56.593Z,-1.76
2018-12-16T07:09:26.876Z,-1.78
2018-12-16T07:11:57.061Z,-1.76
2018-12-16T07:14:27.226Z,-1.68
2018-12-16T07:16:57.397Z,-1.68
2018-12-16T07:19:28.436Z,-1.70
2018-12-16T07:22:05.416Z,-1.66
2018-12-16T07:24:35.809Z,-1.69
2018-12-16T07:29:52.959Z,-1.66
2018-12-16T07:32:23.093Z,-1.64
2018-12-16T07:34:57.456Z,-1.61
2018-12-16T07:40:04.502Z,-1.58
2018-12-16T07:42:34.591Z,-1.57
2018-12-16T07:45:06.349Z,-1.57
2018-12-16T07:47:36.541Z,-1.61
2018-12-16T07:52:47.752Z,-1.46
2018-12-16T07:55:18.066Z,-1.41
2018-12-16T07:57:49.249Z,-1.32
2018-12-16T08:00:19.510Z,-1.29
2018-12-16T08:02:49.913Z,-1.26
2018-12-16T08:05:19.925Z,-1.18
2018-12-16T08:07:50.072Z,-1.18
2018-12-16T08:10:21.342Z,-1.09
2018-12-16T08:12:51.303Z,-1.02
2018-12-16T08:15:21.506Z,-0.99
2018-12-16T08:17:51.725Z,-0.92
2018-12-16T08:20:22.267Z,-0.95
2018-12-16T08:22:52.847Z,-0.86
2018-12-16T08:25:23.662Z,-0.89
2018-12-16T08:27:54.621Z,-0.85
2018-12-16T08:30:24.941Z,-0.75
2018-12-16T08:32:55.067Z,-0.67
2018-12-16T08:35:25.374Z,-0.67
2018-12-16T08:37:56.274Z,-0.71
2018-12-16T08:40:26.472Z,-0.68
2018-12-16T08:42:56.752Z,-0.63
2018-12-16T08:45:26.745Z,-0.61
2018-12-16T08:47:57.135Z,-0.59
2018-12-16T08:50:27.375Z,-0.64
2018-12-16T08:52:57.860Z,-0.61
2018-12-16T08:55:28.110Z,-0.62
2018-12-16T08:57:58.244Z,-0.54
2018-12-16T09:00:28.824Z,-0.58
2018-12-16T09:02:59.468Z,-0.59
2018-12-16T09:05:29.580Z,-0.76
2018-12-16T09:08:00.538Z,-0.72
2018-12-16T09:10:34.076Z,-0.76
2018-12-16T09:13:03.348Z,-0.69
2018-12-16T09:15:33.793Z,-0.61
2018-12-16T09:18:04.023Z,-0.54
2018-12-16T09:20:34.188Z,-0.64
2018-12-16T09:23:04.372Z,-0.63
2018-12-16T09:25:34.664Z,-0.61
2018-12-16T09:28:05.452Z,-0.73
2018-12-16T09:30:35.946Z,-0.70
2018-12-16T09:33:06.379Z,-0.74
2018-12-16T09:35:36.879Z,-0.88
2018-12-16T09:38:07.375Z,-0.96
2018-12-16T09:40:37.409Z,-0.90
2018-12-16T09:43:08.960Z,-0.99
2018-12-16T09:45:39.394Z,-0.92
2018-12-16T09:48:10.060Z,-0.91
2018-12-16T09:50:40.125Z,-0.92
2018-12-16T09:53:11.718Z,-0.96
2018-12-16T09:55:42.542Z,-0.91
2018-12-16T10:01:00.536Z,-0.68
2018-12-16T10:03:31.617Z,-0.65
2018-12-16T10:06:01.524Z,-0.71
2018-12-16T10:08:32.381Z,-0.65
2018-12-16T10:11:06.369Z,-0.65
2018-12-16T10:13:36.255Z,-0.44
2018-12-16T10:16:06.217Z,-0.25
2018-12-16T10:21:23.142Z,-0.04
2018-12-16T10:26:31.175Z,0.23
2018-12-16T10:29:02.142Z,0.31
2018-12-16T10:31:32.538Z,0.23
2018-12-16T10:34:03.512Z,0.49
2018-12-16T10:36:34.050Z,0.66
2018-12-16T10:39:09.411Z,0.67
2018-12-16T10:41:39.392Z,0.73
2018-12-16T10:44:13.788Z,0.78
2018-12-16T10:46:44.615Z,0.79
2018-12-16T10:49:15.557Z,0.83
2018-12-16T10:51:47.139Z,0.78
2018-12-16T10:54:17.841Z,0.56
2018-12-16T10:56:48.723Z,0.60
2018-12-16T10:59:21.402Z,0.58
2018-12-16T11:01:51.976Z,0.52
2018-12-16T11:06:59.323Z,0.49
2018-12-16T11:09:29.657Z,0.22
2018-12-16T11:11:59.936Z,0.34
2018-12-16T11:14:31.035Z,0.27
2018-12-16T11:17:02.383Z,0.33
2018-12-16T11:19:33.123Z,0.24
2018-12-16T11:22:04.256Z,0.35
2018-12-16T11:24:34.880Z,0.41
2018-12-16T11:27:05.906Z,0.36
2018-12-16T11:29:36.903Z,0.28
2018-12-16T11:32:07.646Z,0.35
2018-12-16T11:34:38.640Z,0.39
2018-12-16T11:37:10.569Z,0.54
2018-12-16T11:39:40.963Z,0.55
2018-12-16T11:42:11.119Z,0.42
2018-12-16T11:44:41.652Z,0.43
2018-12-16T11:47:13.173Z,0.61
2018-12-16T11:49:44.437Z,0.71
2018-12-16T11:52:15.281Z,0.91
2018-12-16T11:54:47.601Z,2.19
2018-12-16T11:57:17.532Z,3.79
2018-12-16T11:59:47.452Z,4.68
2018-12-16T12:02:18.148Z,5.28
2018-12-16T12:04:51.551Z,5.94
2018-12-16T12:07:22.551Z,6.18
2018-12-16T12:09:53.954Z,5.70
2018-12-16T12:12:24.521Z,5.83
2018-12-16T12:14:55.003Z,5.97
2018-12-16T12:17:25.508Z,6.28
2018-12-16T12:19:56.050Z,6.94
2018-12-16T12:25:03.050Z,6.94
2018-12-16T12:27:33.303Z,6.66
2018-12-16T12:30:05.462Z,5.50
2018-12-16T12:32:38.097Z,5.32
2018-12-16T12:35:11.757Z,4.98
2018-12-16T12:37:43.608Z,4.65
2018-12-16T12:40:14.266Z,4.11
2018-12-16T12:42:44.587Z,3.44
2018-12-16T12:45:14.603Z,3.06
2018-12-16T12:47:44.973Z,3.21
2018-12-16T12:50:16.038Z,3.04
2018-12-16T12:52:46.036Z,3.04
2018-12-16T12:57:53.516Z,2.86
2018-12-16T13:00:25.816Z,2.60
2018-12-16T13:02:56.685Z,2.66
2018-12-16T13:05:26.573Z,2.71
2018-12-16T13:07:57.040Z,2.57
2018-12-16T13:10:27.509Z,2.57
2018-12-16T13:13:02.409Z,2.44
2018-12-16T13:15:32.806Z,2.41
2018-12-16T13:18:03.326Z,2.52
2018-12-16T13:20:33.214Z,2.64
2018-12-16T13:23:03.856Z,2.66
2018-12-16T13:25:45.129Z,2.57
2018-12-16T13:28:16.441Z,2.50
2018-12-16T13:30:46.997Z,2.49
2018-12-16T13:35:56.769Z,2.29
2018-12-16T13:41:04.264Z,1.98
2018-12-16T13:43:34.289Z,1.85
2018-12-16T13:48:43.352Z,1.68
2018-12-16T13:51:15.109Z,1.30
2018-12-16T13:53:45.983Z,1.25
2018-12-16T13:56:16.297Z,1.11
2018-12-16T13:58:46.753Z,1.09
2018-12-16T14:01:16.744Z,1.04
2018-12-16T14:03:50.730Z,1.01
2018-12-16T14:06:22.059Z,0.94
2018-12-16T14:08:53.939Z,0.89
2018-12-16T14:11:25.067Z,0.76
2018-12-16T14:13:56.594Z,0.65
2018-12-16T14:16:27.156Z,0.66
2018-12-16T14:18:59.039Z,0.51
2018-12-16T14:21:29.684Z,0.38
2018-12-16T14:24:00.765Z,0.20
2018-12-16T14:26:35.337Z,0.14
2018-12-16T14:29:07.100Z,0.05
2018-12-16T14:31:37.684Z,-0.10
2018-12-16T14:34:08.368Z,-0.33
2018-12-16T14:36:38.971Z,-0.35
2018-12-16T14:39:11.099Z,-0.46
2018-12-16T14:41:41.160Z,-0.60
2018-12-16T14:44:11.161Z,-0.64
2018-12-16T14:46:42.869Z,-0.76
2018-12-16T14:49:15.473Z,-0.92
2018-12-16T14:51:45.932Z,-0.97
2018-12-16T14:56:53.080Z,-1.19
2018-12-16T14:59:23.656Z,-1.22
2018-12-16T15:01:54.581Z,-1.28
2018-12-16T15:04:25.038Z,-1.35
2018-12-16T15:06:55.493Z,-1.43
2018-12-16T15:09:26.062Z,-1.49
2018-12-16T15:14:33.292Z,-1.61
2018-12-16T15:17:04.450Z,-1.69
2018-12-16T15:19:34.413Z,-1.83
2018-12-16T15:22:05.581Z,-1.91
2018-12-16T15:24:37.288Z,-1.93
2018-12-16T15:27:12.449Z,-1.99
2018-12-16T15:29:42.699Z,-2.04
2018-12-16T15:32:13.458Z,-2.18
2018-12-16T15:34:44.944Z,-2.24
2018-12-16T15:37:15.684Z,-2.26
2018-12-16T15:39:50.329Z,-2.34
2018-12-16T15:42:20.467Z,-2.38
2018-12-16T15:44:51.669Z,-2.45
2018-12-16T15:47:21.772Z,-2.51
2018-12-16T15:49:52.193Z,-2.57
2018-12-16T15:52:22.879Z,-2.62
2018-12-16T15:54:54.132Z,-2.67
2018-12-16T15:57:26.442Z,-2.68
2018-12-16T15:59:58.996Z,-2.73
2018-12-16T16:02:31.461Z,-2.77
2018-12-16T16:05:02.525Z,-2.81
2018-12-16T16:07:32.487Z,-2.83
2018-12-16T16:10:09.495Z,-2.87
2018-12-16T16:12:40.113Z,-2.93
2018-12-16T16:15:12.241Z,-2.95
2018-12-16T16:17:42.836Z,-2.98
2018-12-16T16:20:14.162Z,-3.01
2018-12-16T16:22:44.881Z,-3.06
2018-12-16T16:25:18.196Z,-3.12
2018-12-16T16:27:49.002Z,-3.23
2018-12-16T16:32:56.812Z,-3.33
2018-12-16T16:35:29.212Z,-3.38
2018-12-16T16:38:01.046Z,-3.48
2018-12-16T16:40:35.458Z,-3.51
2018-12-16T16:43:07.001Z,-3.58
2018-12-16T16:48:14.194Z,-3.70
2018-12-16T16:50:45.328Z,-3.75
2018-12-16T16:53:16.912Z,-3.78
2018-12-16T16:55:48.382Z,-3.79
2018-12-16T16:58:19.606Z,-3.85
2018-12-16T17:00:50.376Z,-3.89
2018-12-16T17:03:21.028Z,-3.93
2018-12-16T17:05:52.669Z,-3.95
2018-12-16T17:08:22.907Z,-4.00
2018-12-16T17:10:54.091Z,-4.03
2018-12-16T17:13:24.725Z,-4.07
2018-12-16T17:15:55.225Z,-4.11
2018-12-16T17:18:25.476Z,-4.12
2018-12-16T17:20:55.750Z,-4.14
2018-12-16T17:23:25.759Z,-4.16
2018-12-16T17:25:56.002Z,-4.18
2018-12-16T17:28:26.147Z,-4.21
2018-12-16T17:30:57.232Z,-4.23
2018-12-16T17:33:29.827Z,-4.26
2018-12-16T17:36:01.774Z,-4.28
2018-12-16T17:38:32.090Z,-4.31
2018-12-16T17:41:03.041Z,-4.34
2018-12-16T17:46:11.219Z,-4.36
2018-12-16T17:48:42.146Z,-4.36
2018-12-16T17:51:13.455Z,-4.39
2018-12-16T17:53:44.702Z,-4.43
2018-12-16T17:56:15.002Z,-4.45
2018-12-16T17:58:46.085Z,-4.48
2018-12-16T18:01:21.100Z,-4.50
2018-12-16T18:03:51.911Z,-4.51
2018-12-16T18:08:59.178Z,-4.44
2018-12-16T18:11:29.275Z,-4.44
2018-12-16T18:13:59.432Z,-4.48
2018-12-16T18:16:30.736Z,-4.50
2018-12-16T18:19:01.296Z,-4.48
2018-12-16T18:21:33.020Z,-4.39
2018-12-16T18:24:03.875Z,-4.26
2018-12-16T18:26:35.267Z,-4.26
2018-12-16T18:29:07.163Z,-4.29
2018-12-16T18:31:37.557Z,-4.31
2018-12-16T18:34:09.946Z,-4.32
2018-12-16T18:36:41.136Z,-4.36
2018-12-16T18:39:12.210Z,-4.39
2018-12-16T18:41:44.532Z,-4.45
2018-12-16T18:44:15.667Z,-4.48
2018-12-16T18:46:46.327Z,-4.50
2018-12-16T18:49:17.727Z,-4.44
2018-12-16T18:51:51.189Z,-4.52
2018-12-16T18:54:22.120Z,-4.53
2018-12-16T18:56:56.842Z,-4.55
2018-12-16T18:59:29.738Z,-4.49
2018-12-16T19:02:00.021Z,-4.59
2018-12-16T19:04:31.171Z,-4.67
2018-12-16T19:07:03.685Z,-4.66
2018-12-16T19:09:34.240Z,-4.73
2018-12-16T19:14:42.940Z,-4.97
2018-12-16T19:17:13.076Z,-5.04
2018-12-16T19:19:44.098Z,-5.09
2018-12-16T19:22:14.694Z,-5.13
2018-12-16T19:24:45.734Z,-5.20
2018-12-16T19:27:16.277Z,-5.23
2018-12-16T19:29:47.569Z,-5.26
2018-12-16T19:32:18.357Z,-5.27
2018-12-16T19:34:48.773Z,-5.36
2018-12-16T19:37:19.819Z,-5.37
2018-12-16T19:39:50.611Z,-5.44
2018-12-16T19:42:22.242Z,-5.45
2018-12-16T19:44:54.554Z,-5.48
2018-12-16T19:47:24.745Z,-5.50
2018-12-16T19:49:55.701Z,-5.50
2018-12-16T19:52:27.193Z,-5.56
2018-12-16T19:54:58.937Z,-5.53
2018-12-16T19:57:30.982Z,-5.55
2018-12-16T20:00:01.210Z,-5.53
2018-12-16T20:02:31.583Z,-5.56
2018-12-16T20:05:05.587Z,-5.56
2018-12-16T20:07:36.685Z,-5.56
2018-12-16T20:10:07.237Z,-5.62
2018-12-16T20:12:37.663Z,-5.63
2018-12-16T20:15:10.371Z,-5.66
2018-12-16T20:17:45.292Z,-5.67
2018-12-16T20:22:54.926Z,-5.68
2018-12-16T20:25:26.055Z,-5.68
2018-12-16T20:27:57.844Z,-5.79
2018-12-16T20:30:29.114Z,-5.77
2018-12-16T20:33:02.306Z,-5.79
2018-12-16T20:35:33.868Z,-5.84
2018-12-16T20:38:05.142Z,-5.86
2018-12-16T20:40:37.045Z,-5.86
2018-12-16T20:43:10.031Z,-5.87
2018-12-16T20:45:41.197Z,-5.88
2018-12-16T20:48:11.451Z,-5.93
2018-12-16T20:50:43.245Z,-5.95
2018-12-16T20:53:14.419Z,-5.97
2018-12-16T20:55:46.128Z,-5.96
2018-12-16T21:00:54.798Z,-5.67
2018-12-16T21:03:26.518Z,-5.66
2018-12-16T21:06:04.248Z,-5.66
2018-12-16T21:08:35.616Z,-5.77
2018-12-16T21:11:12.165Z,-5.79
2018-12-16T21:13:47.594Z,-5.92
2018-12-16T21:16:24.524Z,-5.95
2018-12-16T21:18:56.436Z,-6.05
2018-12-16T21:21:27.474Z,-6.06
2018-12-16T21:23:59.050Z,-6.08
2018-12-16T21:26:31.901Z,-6.11
2018-12-16T21:29:03.860Z,-6.14
2018-12-16T21:31:34.220Z,-6.13
2018-12-16T21:34:05.394Z,-6.17
2018-12-16T21:36:38.968Z,-6.15
2018-12-16T21:39:10.135Z,-6.15
2018-12-16T21:41:40.653Z,-6.15
2018-12-16T21:44:11.977Z,-6.16
2018-12-16T21:46:43.509Z,-6.17
2018-12-16T21:49:14.438Z,-6.19
2018-12-16T21:51:45.636Z,-6.19
2018-12-16T21:56:53.983Z,-6.20
2018-12-16T22:02:10.290Z,-6.20
2018-12-16T22:04:41.020Z,-6.18
2018-12-16T22:07:12.629Z,-6.15
2018-12-16T22:09:42.589Z,-6.11
2018-12-16T22:12:13.247Z,-6.05
2018-12-16T22:14:47.497Z,-6.01
2018-12-16T22:17:18.377Z,-6.08
2018-12-16T22:19:50.223Z,-6.10
2018-12-16T22:24:57.662Z,-6.08
2018-12-16T22:27:29.257Z,-6.11
2018-12-16T22:30:01.236Z,-6.17
2018-12-16T22:32:33.502Z,-6.09
2018-12-16T22:35:05.521Z,-6.05
2018-12-16T22:37:37.019Z,-6.01
2018-12-16T22:40:13.290Z,-5.98
2018-12-16T22:42:46.522Z,-6.01
2018-12-16T22:45:17.311Z,-6.04
2018-12-16T22:47:49.291Z,-6.04
2018-12-16T22:50:20.583Z,-6.05
2018-12-16T22:52:52.784Z,-6.05
2018-12-16T22:55:24.181Z,-6.07
2018-12-16T22:57:55.681Z,-6.10
2018-12-16T23:00:30.217Z,-6.09
2018-12-16T23:03:04.157Z,-6.11
2018-12-16T23:05:36.122Z,-6.11
2018-12-16T23:08:06.930Z,-6.11
2018-12-16T23:10:39.543Z,-6.11
2018-12-16T23:13:09.825Z,-6.15
2018-12-16T23:15:42.746Z,-6.16
2018-12-16T23:18:14.893Z,-6.18
2018-12-16T23:20:47.077Z,-6.23
2018-12-16T23:23:19.305Z,-6.27
2018-12-16T23:25:50.570Z,-6.30
2018-12-16T23:28:22.632Z,-6.39
2018-12-16T23:30:53.009Z,-6.38
2018-12-16T23:33:24.459Z,-6.41
2018-12-16T23:35:56.372Z,-6.43
2018-12-16T23:38:27.954Z,-6.51
2018-12-16T23:41:00.174Z,-6.51
2018-12-16T23:43:32.157Z,-6.54
2018-12-16T23:46:03.583Z,-6.52
2018-12-16T23:51:13.161Z,-6.46
2018-12-16T23:53:45.016Z,-6.39
2018-12-16T23:56:15.717Z,-6.43
2018-12-16T23:58:46.544Z,-6.38
